sensor_id;sensor_type;location;lat;lon;timestamp;P1;durP1;ratioP1;P2;durP2;ratioP2
37367;SDS011;23240;43.210;27.910;2022-10-16T00:01:17;14.30;;;5.80;;
37367;SDS011;23240;43.210;27.910;2022-10-16T00:03:44;14.63;;;6.20;;
37367;SDS011;23240;43.210;27.910;2022-10-16T00:06:11;16.45;;;6.32;;
37367;SDS011;23240;43.210;27.910;2022-10-16T00:08:38;17.45;;;7.07;;
37367;SDS011;23240;43.210;27.910;2022-10-16T00:11:14;15.93;;;5.57;;
37367;SDS011;23240;43.210;27.910;2022-10-16T00:13:40;12.73;;;5.40;;
37367;SDS011;23240;43.210;27.910;2022-10-16T00:16:07;12.18;;;5.03;;
37367;SDS011;23240;43.210;27.910;2022-10-16T00:18:34;13.40;;;5.05;;
37367;SDS011;23240;43.210;27.910;2022-10-16T00:21:03;12.98;;;4.63;;
37367;SDS011;23240;43.210;27.910;2022-10-16T00:23:34;8.52;;;4.30;;
37367;SDS011;23240;43.210;27.910;2022-10-16T00:26:01;13.82;;;4.65;;
37367;SDS011;23240;43.210;27.910;2022-10-16T00:28:29;10.60;;;4.55;;
37367;SDS011;23240;43.210;27.910;2022-10-16T00:30:55;10.68;;;4.35;;
37367;SDS011;23240;43.210;27.910;2022-10-16T00:33:20;13.40;;;4.95;;
37367;SDS011;23240;43.210;27.910;2022-10-16T00:35:46;13.15;;;5.53;;
37367;SDS011;23240;43.210;27.910;2022-10-16T00:38:12;12.30;;;5.05;;
37367;SDS011;23240;43.210;27.910;2022-10-16T00:40:38;9.70;;;4.57;;
37367;SDS011;23240;43.210;27.910;2022-10-16T00:43:09;10.70;;;4.78;;
37367;SDS011;23240;43.210;27.910;2022-10-16T00:45:38;11.13;;;4.53;;
37367;SDS011;23240;43.210;27.910;2022-10-16T00:48:06;13.13;;;5.30;;
37367;SDS011;23240;43.210;27.910;2022-10-16T00:50:35;9.52;;;4.28;;
37367;SDS011;23240;43.210;27.910;2022-10-16T00:53:01;11.23;;;4.97;;
37367;SDS011;23240;43.210;27.910;2022-10-16T00:55:28;9.18;;;4.05;;
37367;SDS011;23240;43.210;27.910;2022-10-16T00:57:55;14.00;;;5.25;;
37367;SDS011;23240;43.210;27.910;2022-10-16T01:00:23;10.75;;;4.85;;
37367;SDS011;23240;43.210;27.910;2022-10-16T01:02:54;10.88;;;4.38;;
37367;SDS011;23240;43.210;27.910;2022-10-16T01:05:22;11.57;;;4.32;;
37367;SDS011;23240;43.210;27.910;2022-10-16T01:08:26;10.20;;;4.10;;
37367;SDS011;23240;43.210;27.910;2022-10-16T01:10:57;6.28;;;3.70;;
37367;SDS011;23240;43.210;27.910;2022-10-16T01:13:33;11.15;;;4.63;;
37367;SDS011;23240;43.210;27.910;2022-10-16T01:18:52;7.22;;;3.42;;
37367;SDS011;23240;43.210;27.910;2022-10-16T01:21:32;12.43;;;4.43;;
37367;SDS011;23240;43.210;27.910;2022-10-16T01:24:15;6.05;;;3.38;;
37367;SDS011;23240;43.210;27.910;2022-10-16T01:30:06;6.25;;;3.60;;
37367;SDS011;23240;43.210;27.910;2022-10-16T01:34:51;11.32;;;4.05;;
37367;SDS011;23240;43.210;27.910;2022-10-16T01:37:27;6.88;;;3.05;;
37367;SDS011;23240;43.210;27.910;2022-10-16T01:39:58;6.85;;;3.40;;
37367;SDS011;23240;43.210;27.910;2022-10-16T01:42:33;6.63;;;3.65;;
37367;SDS011;23240;43.210;27.910;2022-10-16T01:45:01;11.13;;;3.78;;
37367;SDS011;23240;43.210;27.910;2022-10-16T01:47:31;5.80;;;3.17;;
37367;SDS011;23240;43.210;27.910;2022-10-16T01:49:58;6.18;;;3.40;;
37367;SDS011;23240;43.210;27.910;2022-10-16T01:52:26;6.28;;;3.47;;
37367;SDS011;23240;43.210;27.910;2022-10-16T01:54:54;5.28;;;2.85;;
37367;SDS011;23240;43.210;27.910;2022-10-16T01:57:21;5.50;;;3.22;;
37367;SDS011;23240;43.210;27.910;2022-10-16T01:59:52;7.53;;;3.60;;
37367;SDS011;23240;43.210;27.910;2022-10-16T02:02:21;7.70;;;3.40;;
37367;SDS011;23240;43.210;27.910;2022-10-16T02:04:56;5.93;;;2.92;;
37367;SDS011;23240;43.210;27.910;2022-10-16T02:07:45;6.78;;;3.10;;
37367;SDS011;23240;43.210;27.910;2022-10-16T02:10:12;8.82;;;3.80;;
37367;SDS011;23240;43.210;27.910;2022-10-16T02:12:39;7.43;;;3.35;;
37367;SDS011;23240;43.210;27.910;2022-10-16T02:15:09;6.80;;;3.10;;
37367;SDS011;23240;43.210;27.910;2022-10-16T02:17:35;4.13;;;2.78;;
37367;SDS011;23240;43.210;27.910;2022-10-16T02:20:00;4.68;;;2.80;;
37367;SDS011;23240;43.210;27.910;2022-10-16T02:22:35;6.53;;;3.30;;
37367;SDS011;23240;43.210;27.910;2022-10-16T02:25:11;6.50;;;3.00;;
37367;SDS011;23240;43.210;27.910;2022-10-16T02:28:01;7.65;;;3.30;;
37367;SDS011;23240;43.210;27.910;2022-10-16T02:30:36;4.85;;;2.78;;
37367;SDS011;23240;43.210;27.910;2022-10-16T02:33:03;7.35;;;2.80;;
37367;SDS011;23240;43.210;27.910;2022-10-16T02:35:32;6.57;;;2.65;;
37367;SDS011;23240;43.210;27.910;2022-10-16T02:37:58;10.10;;;3.05;;
37367;SDS011;23240;43.210;27.910;2022-10-16T02:40:24;4.32;;;2.75;;
37367;SDS011;23240;43.210;27.910;2022-10-16T02:42:52;6.05;;;3.20;;
37367;SDS011;23240;43.210;27.910;2022-10-16T02:45:18;4.13;;;2.70;;
37367;SDS011;23240;43.210;27.910;2022-10-16T02:47:44;5.80;;;3.33;;
37367;SDS011;23240;43.210;27.910;2022-10-16T02:50:10;4.07;;;2.67;;
37367;SDS011;23240;43.210;27.910;2022-10-16T02:52:36;7.55;;;2.72;;
37367;SDS011;23240;43.210;27.910;2022-10-16T02:55:01;5.95;;;2.53;;
37367;SDS011;23240;43.210;27.910;2022-10-16T02:57:27;5.93;;;3.22;;
37367;SDS011;23240;43.210;27.910;2022-10-16T02:59:52;3.95;;;2.80;;
37367;SDS011;23240;43.210;27.910;2022-10-16T03:02:18;6.85;;;3.17;;
37367;SDS011;23240;43.210;27.910;2022-10-16T03:04:44;3.75;;;2.78;;
37367;SDS011;23240;43.210;27.910;2022-10-16T03:07:09;5.57;;;3.13;;
37367;SDS011;23240;43.210;27.910;2022-10-16T03:09:35;6.85;;;2.78;;
37367;SDS011;23240;43.210;27.910;2022-10-16T03:12:00;3.50;;;2.28;;
37367;SDS011;23240;43.210;27.910;2022-10-16T03:14:26;2.80;;;2.30;;
37367;SDS011;23240;43.210;27.910;2022-10-16T03:16:51;4.10;;;2.22;;
37367;SDS011;23240;43.210;27.910;2022-10-16T03:19:17;4.00;;;2.28;;
37367;SDS011;23240;43.210;27.910;2022-10-16T03:21:43;4.05;;;2.50;;
37367;SDS011;23240;43.210;27.910;2022-10-16T03:24:09;5.82;;;2.17;;
37367;SDS011;23240;43.210;27.910;2022-10-16T03:26:34;5.15;;;2.78;;
37367;SDS011;23240;43.210;27.910;2022-10-16T03:29:00;4.40;;;2.70;;
37367;SDS011;23240;43.210;27.910;2022-10-16T03:31:27;6.45;;;3.03;;
37367;SDS011;23240;43.210;27.910;2022-10-16T03:33:53;2.90;;;2.42;;
37367;SDS011;23240;43.210;27.910;2022-10-16T03:36:18;2.30;;;1.83;;
37367;SDS011;23240;43.210;27.910;2022-10-16T03:38:43;6.32;;;2.50;;
37367;SDS011;23240;43.210;27.910;2022-10-16T03:41:09;15.15;;;3.50;;
37367;SDS011;23240;43.210;27.910;2022-10-16T03:43:34;3.83;;;2.50;;
37367;SDS011;23240;43.210;27.910;2022-10-16T03:46:00;4.50;;;2.50;;
37367;SDS011;23240;43.210;27.910;2022-10-16T03:48:26;6.18;;;2.60;;
37367;SDS011;23240;43.210;27.910;2022-10-16T03:50:51;3.95;;;2.80;;
37367;SDS011;23240;43.210;27.910;2022-10-16T03:53:17;5.35;;;2.60;;
37367;SDS011;23240;43.210;27.910;2022-10-16T03:55:43;6.10;;;2.85;;
37367;SDS011;23240;43.210;27.910;2022-10-16T03:58:09;6.45;;;3.00;;
37367;SDS011;23240;43.210;27.910;2022-10-16T04:00:35;6.03;;;3.17;;
37367;SDS011;23240;43.210;27.910;2022-10-16T04:03:01;3.13;;;2.22;;
37367;SDS011;23240;43.210;27.910;2022-10-16T04:05:26;5.32;;;2.22;;
37367;SDS011;23240;43.210;27.910;2022-10-16T04:07:52;4.53;;;2.50;;
37367;SDS011;23240;43.210;27.910;2022-10-16T04:10:17;4.30;;;2.30;;
37367;SDS011;23240;43.210;27.910;2022-10-16T04:12:44;6.15;;;3.08;;
37367;SDS011;23240;43.210;27.910;2022-10-16T04:15:09;4.30;;;2.47;;
37367;SDS011;23240;43.210;27.910;2022-10-16T04:17:35;10.20;;;3.90;;
37367;SDS011;23240;43.210;27.910;2022-10-16T04:20:00;5.95;;;2.75;;
37367;SDS011;23240;43.210;27.910;2022-10-16T04:22:26;3.90;;;2.63;;
37367;SDS011;23240;43.210;27.910;2022-10-16T04:24:51;14.80;;;3.40;;
37367;SDS011;23240;43.210;27.910;2022-10-16T04:27:17;6.68;;;3.05;;
37367;SDS011;23240;43.210;27.910;2022-10-16T04:29:42;6.22;;;2.90;;
37367;SDS011;23240;43.210;27.910;2022-10-16T04:32:11;11.15;;;2.88;;
37367;SDS011;23240;43.210;27.910;2022-10-16T04:34:36;4.50;;;2.75;;
37367;SDS011;23240;43.210;27.910;2022-10-16T04:37:05;6.05;;;3.35;;
37367;SDS011;23240;43.210;27.910;2022-10-16T04:39:31;7.28;;;3.15;;
37367;SDS011;23240;43.210;27.910;2022-10-16T04:41:56;7.85;;;3.03;;
37367;SDS011;23240;43.210;27.910;2022-10-16T04:44:22;5.22;;;2.75;;
37367;SDS011;23240;43.210;27.910;2022-10-16T04:46:47;7.07;;;2.97;;
37367;SDS011;23240;43.210;27.910;2022-10-16T04:49:15;7.13;;;3.90;;
37367;SDS011;23240;43.210;27.910;2022-10-16T04:51:40;6.50;;;3.38;;
37367;SDS011;23240;43.210;27.910;2022-10-16T04:54:06;7.38;;;3.20;;
37367;SDS011;23240;43.210;27.910;2022-10-16T04:56:31;3.95;;;2.88;;
37367;SDS011;23240;43.210;27.910;2022-10-16T04:58:57;7.18;;;3.28;;
37367;SDS011;23240;43.210;27.910;2022-10-16T05:01:23;10.77;;;3.15;;
37367;SDS011;23240;43.210;27.910;2022-10-16T05:03:48;5.68;;;3.33;;
37367;SDS011;23240;43.210;27.910;2022-10-16T05:06:13;7.75;;;3.30;;
37367;SDS011;23240;43.210;27.910;2022-10-16T05:08:39;5.88;;;3.15;;
37367;SDS011;23240;43.210;27.910;2022-10-16T05:11:04;3.85;;;2.70;;
37367;SDS011;23240;43.210;27.910;2022-10-16T05:13:30;7.97;;;3.35;;
37367;SDS011;23240;43.210;27.910;2022-10-16T05:15:55;10.02;;;3.65;;
37367;SDS011;23240;43.210;27.910;2022-10-16T05:18:22;7.30;;;2.95;;
37367;SDS011;23240;43.210;27.910;2022-10-16T05:20:47;7.00;;;3.42;;
37367;SDS011;23240;43.210;27.910;2022-10-16T05:23:13;7.75;;;3.20;;
37367;SDS011;23240;43.210;27.910;2022-10-16T05:25:38;7.05;;;3.63;;
37367;SDS011;23240;43.210;27.910;2022-10-16T05:28:04;6.43;;;3.22;;
37367;SDS011;23240;43.210;27.910;2022-10-16T05:30:29;6.85;;;3.65;;
37367;SDS011;23240;43.210;27.910;2022-10-16T05:32:55;6.13;;;3.00;;
37367;SDS011;23240;43.210;27.910;2022-10-16T05:35:20;7.72;;;3.47;;
37367;SDS011;23240;43.210;27.910;2022-10-16T05:37:47;6.13;;;3.50;;
37367;SDS011;23240;43.210;27.910;2022-10-16T05:40:12;7.10;;;3.58;;
37367;SDS011;23240;43.210;27.910;2022-10-16T05:42:39;9.18;;;3.90;;
37367;SDS011;23240;43.210;27.910;2022-10-16T05:45:05;7.20;;;3.60;;
37367;SDS011;23240;43.210;27.910;2022-10-16T05:47:33;7.63;;;3.58;;
37367;SDS011;23240;43.210;27.910;2022-10-16T05:49:58;6.10;;;3.15;;
37367;SDS011;23240;43.210;27.910;2022-10-16T05:52:24;8.20;;;3.72;;
37367;SDS011;23240;43.210;27.910;2022-10-16T05:54:49;7.28;;;3.22;;
37367;SDS011;23240;43.210;27.910;2022-10-16T05:57:15;10.10;;;4.18;;
37367;SDS011;23240;43.210;27.910;2022-10-16T05:59:40;8.40;;;4.03;;
37367;SDS011;23240;43.210;27.910;2022-10-16T06:02:07;10.85;;;4.10;;
37367;SDS011;23240;43.210;27.910;2022-10-16T06:04:36;8.20;;;4.20;;
37367;SDS011;23240;43.210;27.910;2022-10-16T06:07:02;5.88;;;3.35;;
37367;SDS011;23240;43.210;27.910;2022-10-16T06:09:27;7.03;;;3.33;;
37367;SDS011;23240;43.210;27.910;2022-10-16T06:11:53;9.02;;;3.90;;
37367;SDS011;23240;43.210;27.910;2022-10-16T06:14:18;9.35;;;4.20;;
37367;SDS011;23240;43.210;27.910;2022-10-16T06:16:44;8.93;;;4.15;;
37367;SDS011;23240;43.210;27.910;2022-10-16T06:19:09;9.05;;;4.15;;
37367;SDS011;23240;43.210;27.910;2022-10-16T06:21:35;9.02;;;3.92;;
37367;SDS011;23240;43.210;27.910;2022-10-16T06:24:00;9.35;;;3.78;;
37367;SDS011;23240;43.210;27.910;2022-10-16T06:26:27;9.15;;;4.43;;
37367;SDS011;23240;43.210;27.910;2022-10-16T06:28:54;8.77;;;3.75;;
37367;SDS011;23240;43.210;27.910;2022-10-16T06:31:21;6.15;;;3.35;;
37367;SDS011;23240;43.210;27.910;2022-10-16T06:33:49;8.10;;;3.45;;
37367;SDS011;23240;43.210;27.910;2022-10-16T06:36:16;9.38;;;3.85;;
37367;SDS011;23240;43.210;27.910;2022-10-16T06:38:43;6.70;;;2.92;;
37367;SDS011;23240;43.210;27.910;2022-10-16T06:41:13;7.65;;;3.42;;
37367;SDS011;23240;43.210;27.910;2022-10-16T06:43:43;11.02;;;4.07;;
37367;SDS011;23240;43.210;27.910;2022-10-16T06:46:10;5.10;;;2.67;;
37367;SDS011;23240;43.210;27.910;2022-10-16T06:48:36;2.85;;;2.25;;
37367;SDS011;23240;43.210;27.910;2022-10-16T06:51:04;4.03;;;2.33;;
37367;SDS011;23240;43.210;27.910;2022-10-16T06:53:30;3.85;;;2.38;;
37367;SDS011;23240;43.210;27.910;2022-10-16T06:55:57;7.10;;;3.13;;
37367;SDS011;23240;43.210;27.910;2022-10-16T06:58:23;6.40;;;3.10;;
37367;SDS011;23240;43.210;27.910;2022-10-16T07:00:48;3.45;;;2.33;;
37367;SDS011;23240;43.210;27.910;2022-10-16T07:03:14;4.13;;;2.22;;
37367;SDS011;23240;43.210;27.910;2022-10-16T07:05:41;10.77;;;2.53;;
37367;SDS011;23240;43.210;27.910;2022-10-16T07:08:07;3.58;;;2.35;;
37367;SDS011;23240;43.210;27.910;2022-10-16T07:10:33;4.80;;;2.35;;
37367;SDS011;23240;43.210;27.910;2022-10-16T07:12:59;3.08;;;1.95;;
37367;SDS011;23240;43.210;27.910;2022-10-16T07:15:25;2.17;;;1.98;;
37367;SDS011;23240;43.210;27.910;2022-10-16T07:17:51;4.50;;;2.65;;
37367;SDS011;23240;43.210;27.910;2022-10-16T07:20:18;3.95;;;2.17;;
37367;SDS011;23240;43.210;27.910;2022-10-16T07:22:44;3.92;;;1.90;;
37367;SDS011;23240;43.210;27.910;2022-10-16T07:25:09;7.40;;;2.97;;
37367;SDS011;23240;43.210;27.910;2022-10-16T07:27:36;7.47;;;3.28;;
37367;SDS011;23240;43.210;27.910;2022-10-16T07:30:01;4.03;;;1.75;;
37367;SDS011;23240;43.210;27.910;2022-10-16T07:32:27;3.97;;;2.25;;
37367;SDS011;23240;43.210;27.910;2022-10-16T07:34:53;3.63;;;1.98;;
37367;SDS011;23240;43.210;27.910;2022-10-16T07:37:20;3.63;;;2.20;;
37367;SDS011;23240;43.210;27.910;2022-10-16T07:39:46;3.70;;;2.10;;
37367;SDS011;23240;43.210;27.910;2022-10-16T07:42:11;2.88;;;1.73;;
37367;SDS011;23240;43.210;27.910;2022-10-16T07:44:37;1.25;;;1.23;;
37367;SDS011;23240;43.210;27.910;2022-10-16T07:47:03;3.10;;;1.80;;
37367;SDS011;23240;43.210;27.910;2022-10-16T07:49:28;3.95;;;2.30;;
37367;SDS011;23240;43.210;27.910;2022-10-16T07:51:54;3.25;;;2.10;;
37367;SDS011;23240;43.210;27.910;2022-10-16T07:54:19;3.15;;;1.60;;
37367;SDS011;23240;43.210;27.910;2022-10-16T07:56:45;2.95;;;1.95;;
37367;SDS011;23240;43.210;27.910;2022-10-16T07:59:10;2.25;;;1.85;;
37367;SDS011;23240;43.210;27.910;2022-10-16T08:01:36;2.13;;;1.65;;
37367;SDS011;23240;43.210;27.910;2022-10-16T08:04:01;1.45;;;1.35;;
37367;SDS011;23240;43.210;27.910;2022-10-16T08:06:26;4.93;;;2.08;;
37367;SDS011;23240;43.210;27.910;2022-10-16T08:08:52;4.68;;;2.10;;
37367;SDS011;23240;43.210;27.910;2022-10-16T08:11:18;3.08;;;1.77;;
37367;SDS011;23240;43.210;27.910;2022-10-16T08:13:43;3.63;;;2.00;;
37367;SDS011;23240;43.210;27.910;2022-10-16T08:16:09;2.35;;;1.90;;
37367;SDS011;23240;43.210;27.910;2022-10-16T08:18:35;2.78;;;2.00;;
37367;SDS011;23240;43.210;27.910;2022-10-16T08:21:02;5.55;;;2.33;;
37367;SDS011;23240;43.210;27.910;2022-10-16T08:23:29;3.20;;;1.60;;
37367;SDS011;23240;43.210;27.910;2022-10-16T08:25:55;1.70;;;1.60;;
37367;SDS011;23240;43.210;27.910;2022-10-16T08:28:26;3.03;;;1.95;;
37367;SDS011;23240;43.210;27.910;2022-10-16T08:30:52;4.53;;;1.95;;
37367;SDS011;23240;43.210;27.910;2022-10-16T08:33:17;4.30;;;1.98;;
37367;SDS011;23240;43.210;27.910;2022-10-16T08:35:43;4.43;;;2.28;;
37367;SDS011;23240;43.210;27.910;2022-10-16T08:38:15;1.92;;;1.83;;
37367;SDS011;23240;43.210;27.910;2022-10-16T08:40:41;2.33;;;1.75;;
37367;SDS011;23240;43.210;27.910;2022-10-16T08:45:51;2.60;;;1.90;;
37367;SDS011;23240;43.210;27.910;2022-10-16T08:48:53;3.03;;;1.95;;
37367;SDS011;23240;43.210;27.910;2022-10-16T08:53:54;2.95;;;1.80;;
37367;SDS011;23240;43.210;27.910;2022-10-16T08:56:22;4.75;;;2.10;;
37367;SDS011;23240;43.210;27.910;2022-10-16T08:58:49;2.35;;;1.73;;
37367;SDS011;23240;43.210;27.910;2022-10-16T09:01:16;5.05;;;1.92;;
37367;SDS011;23240;43.210;27.910;2022-10-16T09:12:18;2.60;;;1.90;;
37367;SDS011;23240;43.210;27.910;2022-10-16T09:20:24;2.03;;;1.67;;
37367;SDS011;23240;43.210;27.910;2022-10-16T09:23:00;4.57;;;2.03;;
37367;SDS011;23240;43.210;27.910;2022-10-16T09:25:39;4.13;;;1.83;;
37367;SDS011;23240;43.210;27.910;2022-10-16T09:28:08;2.85;;;2.03;;
37367;SDS011;23240;43.210;27.910;2022-10-16T09:30:35;4.00;;;2.13;;
37367;SDS011;23240;43.210;27.910;2022-10-16T09:33:00;3.55;;;2.15;;
37367;SDS011;23240;43.210;27.910;2022-10-16T09:37:59;3.65;;;2.25;;
37367;SDS011;23240;43.210;27.910;2022-10-16T09:40:31;3.30;;;1.98;;
37367;SDS011;23240;43.210;27.910;2022-10-16T09:43:03;3.42;;;2.40;;
37367;SDS011;23240;43.210;27.910;2022-10-16T09:45:54;3.15;;;1.73;;
37367;SDS011;23240;43.210;27.910;2022-10-16T09:48:25;3.13;;;1.60;;
37367;SDS011;23240;43.210;27.910;2022-10-16T09:51:00;4.10;;;1.70;;
37367;SDS011;23240;43.210;27.910;2022-10-16T09:56:06;2.05;;;1.70;;
37367;SDS011;23240;43.210;27.910;2022-10-16T09:58:35;3.38;;;2.00;;
37367;SDS011;23240;43.210;27.910;2022-10-16T10:01:00;5.88;;;2.95;;
37367;SDS011;23240;43.210;27.910;2022-10-16T10:03:37;3.80;;;2.25;;
37367;SDS011;23240;43.210;27.910;2022-10-16T10:06:18;3.20;;;1.90;;
37367;SDS011;23240;43.210;27.910;2022-10-16T10:08:56;3.90;;;1.88;;
37367;SDS011;23240;43.210;27.910;2022-10-16T10:17:06;5.80;;;2.40;;
37367;SDS011;23240;43.210;27.910;2022-10-16T10:19:58;2.80;;;1.75;;
37367;SDS011;23240;43.210;27.910;2022-10-16T10:22:30;2.30;;;1.77;;
37367;SDS011;23240;43.210;27.910;2022-10-16T10:30:25;4.18;;;1.67;;
37367;SDS011;23240;43.210;27.910;2022-10-16T10:35:56;3.70;;;1.73;;
37367;SDS011;23240;43.210;27.910;2022-10-16T10:49:36;2.25;;;1.60;;
37367;SDS011;23240;43.210;27.910;2022-10-16T10:58:27;3.40;;;2.15;;
37367;SDS011;23240;43.210;27.910;2022-10-16T11:06:22;2.95;;;1.67;;
37367;SDS011;23240;43.210;27.910;2022-10-16T11:08:53;2.63;;;2.03;;
37367;SDS011;23240;43.210;27.910;2022-10-16T11:11:57;4.00;;;1.92;;
37367;SDS011;23240;43.210;27.910;2022-10-16T11:17:45;3.28;;;1.83;;
37367;SDS011;23240;43.210;27.910;2022-10-16T11:20:31;3.78;;;2.00;;
37367;SDS011;23240;43.210;27.910;2022-10-16T11:23:14;3.88;;;1.92;;
37367;SDS011;23240;43.210;27.910;2022-10-16T11:25:46;2.58;;;1.83;;
37367;SDS011;23240;43.210;27.910;2022-10-16T11:30:57;2.70;;;2.15;;
37367;SDS011;23240;43.210;27.910;2022-10-16T11:33:34;1.90;;;1.73;;
37367;SDS011;23240;43.210;27.910;2022-10-16T11:36:16;3.13;;;2.00;;
37367;SDS011;23240;43.210;27.910;2022-10-16T11:39:29;1.52;;;1.23;;
37367;SDS011;23240;43.210;27.910;2022-10-16T11:41:50;2.13;;;1.55;;
37367;SDS011;23240;43.210;27.910;2022-10-16T11:50:06;2.25;;;2.03;;
37367;SDS011;23240;43.210;27.910;2022-10-16T11:52:53;1.90;;;1.80;;
37367;SDS011;23240;43.210;27.910;2022-10-16T11:55:28;1.77;;;1.67;;
37367;SDS011;23240;43.210;27.910;2022-10-16T11:58:05;3.08;;;1.80;;
37367;SDS011;23240;43.210;27.910;2022-10-16T12:03:32;3.10;;;2.25;;
37367;SDS011;23240;43.210;27.910;2022-10-16T12:06:13;3.22;;;1.70;;
37367;SDS011;23240;43.210;27.910;2022-10-16T12:08:43;2.30;;;1.80;;
37367;SDS011;23240;43.210;27.910;2022-10-16T12:11:32;3.10;;;1.80;;
37367;SDS011;23240;43.210;27.910;2022-10-16T12:19:30;5.65;;;2.28;;
37367;SDS011;23240;43.210;27.910;2022-10-16T12:21:57;2.53;;;2.10;;
37367;SDS011;23240;43.210;27.910;2022-10-16T12:24:33;3.60;;;1.73;;
37367;SDS011;23240;43.210;27.910;2022-10-16T12:29:40;2.83;;;1.65;;
37367;SDS011;23240;43.210;27.910;2022-10-16T12:35:04;6.85;;;2.00;;
37367;SDS011;23240;43.210;27.910;2022-10-16T12:37:33;4.10;;;2.00;;
37367;SDS011;23240;43.210;27.910;2022-10-16T12:40:11;6.05;;;2.20;;
37367;SDS011;23240;43.210;27.910;2022-10-16T12:42:39;2.47;;;1.95;;
37367;SDS011;23240;43.210;27.910;2022-10-16T12:45:25;4.90;;;1.73;;
37367;SDS011;23240;43.210;27.910;2022-10-16T12:47:59;3.70;;;1.90;;
37367;SDS011;23240;43.210;27.910;2022-10-16T12:50:28;3.47;;;2.10;;
37367;SDS011;23240;43.210;27.910;2022-10-16T12:52:59;4.35;;;2.53;;
37367;SDS011;23240;43.210;27.910;2022-10-16T12:55:25;3.10;;;2.22;;
37367;SDS011;23240;43.210;27.910;2022-10-16T13:06:19;4.57;;;2.10;;
37367;SDS011;23240;43.210;27.910;2022-10-16T13:17:30;4.72;;;2.22;;
37367;SDS011;23240;43.210;27.910;2022-10-16T13:20:39;3.50;;;2.35;;
37367;SDS011;23240;43.210;27.910;2022-10-16T13:23:59;5.13;;;2.22;;
37367;SDS011;23240;43.210;27.910;2022-10-16T13:27:29;3.65;;;2.05;;
37367;SDS011;23240;43.210;27.910;2022-10-16T13:29:53;3.33;;;2.20;;
37367;SDS011;23240;43.210;27.910;2022-10-16T13:32:25;5.13;;;2.35;;
37367;SDS011;23240;43.210;27.910;2022-10-16T13:34:52;3.15;;;2.20;;
37367;SDS011;23240;43.210;27.910;2022-10-16T13:37:20;1.73;;;1.60;;
37367;SDS011;23240;43.210;27.910;2022-10-16T13:39:47;3.15;;;2.35;;
37367;SDS011;23240;43.210;27.910;2022-10-16T13:44:51;4.47;;;2.30;;
37367;SDS011;23240;43.210;27.910;2022-10-16T13:47:19;6.10;;;2.95;;
37367;SDS011;23240;43.210;27.910;2022-10-16T13:49:47;5.10;;;2.55;;
37367;SDS011;23240;43.210;27.910;2022-10-16T13:52:24;4.72;;;2.20;;
37367;SDS011;23240;43.210;27.910;2022-10-16T13:54:49;3.75;;;1.75;;
37367;SDS011;23240;43.210;27.910;2022-10-16T13:57:16;3.22;;;1.98;;
37367;SDS011;23240;43.210;27.910;2022-10-16T13:59:42;4.50;;;2.47;;
37367;SDS011;23240;43.210;27.910;2022-10-16T14:02:14;7.50;;;2.50;;
37367;SDS011;23240;43.210;27.910;2022-10-16T14:04:45;3.45;;;1.77;;
37367;SDS011;23240;43.210;27.910;2022-10-16T14:07:18;2.72;;;1.75;;
37367;SDS011;23240;43.210;27.910;2022-10-16T14:09:48;3.35;;;1.70;;
37367;SDS011;23240;43.210;27.910;2022-10-16T14:12:16;1.90;;;1.55;;
37367;SDS011;23240;43.210;27.910;2022-10-16T14:14:45;4.55;;;1.98;;
37367;SDS011;23240;43.210;27.910;2022-10-16T14:17:15;2.63;;;1.80;;
37367;SDS011;23240;43.210;27.910;2022-10-16T14:19:40;2.33;;;1.90;;
37367;SDS011;23240;43.210;27.910;2022-10-16T14:25:24;3.85;;;2.20;;
37367;SDS011;23240;43.210;27.910;2022-10-16T14:30:24;4.13;;;2.20;;
37367;SDS011;23240;43.210;27.910;2022-10-16T14:32:56;1.85;;;1.50;;
37367;SDS011;23240;43.210;27.910;2022-10-16T14:35:23;2.60;;;1.60;;
37367;SDS011;23240;43.210;27.910;2022-10-16T14:37:57;3.03;;;1.90;;
37367;SDS011;23240;43.210;27.910;2022-10-16T14:40:34;3.05;;;1.77;;
37367;SDS011;23240;43.210;27.910;2022-10-16T14:43:02;2.85;;;2.00;;
37367;SDS011;23240;43.210;27.910;2022-10-16T14:45:30;2.13;;;1.75;;
37367;SDS011;23240;43.210;27.910;2022-10-16T14:47:58;2.00;;;1.70;;
37367;SDS011;23240;43.210;27.910;2022-10-16T14:50:30;2.50;;;2.00;;
37367;SDS011;23240;43.210;27.910;2022-10-16T14:52:56;3.75;;;1.90;;
37367;SDS011;23240;43.210;27.910;2022-10-16T14:55:21;2.35;;;2.10;;
37367;SDS011;23240;43.210;27.910;2022-10-16T14:57:47;3.20;;;2.13;;
37367;SDS011;23240;43.210;27.910;2022-10-16T15:00:20;3.83;;;2.28;;
37367;SDS011;23240;43.210;27.910;2022-10-16T15:02:48;2.33;;;2.00;;
37367;SDS011;23240;43.210;27.910;2022-10-16T15:05:19;3.15;;;1.90;;
37367;SDS011;23240;43.210;27.910;2022-10-16T15:07:50;3.95;;;2.35;;
37367;SDS011;23240;43.210;27.910;2022-10-16T15:10:16;3.30;;;2.00;;
37367;SDS011;23240;43.210;27.910;2022-10-16T15:12:43;3.50;;;2.05;;
37367;SDS011;23240;43.210;27.910;2022-10-16T15:18:00;2.58;;;1.85;;
37367;SDS011;23240;43.210;27.910;2022-10-16T15:20:28;1.60;;;1.50;;
37367;SDS011;23240;43.210;27.910;2022-10-16T15:22:59;3.10;;;1.88;;
37367;SDS011;23240;43.210;27.910;2022-10-16T15:27:57;2.28;;;1.58;;
37367;SDS011;23240;43.210;27.910;2022-10-16T15:30:24;2.90;;;1.85;;
37367;SDS011;23240;43.210;27.910;2022-10-16T15:32:50;3.47;;;2.50;;
37367;SDS011;23240;43.210;27.910;2022-10-16T15:35:16;3.60;;;2.17;;
37367;SDS011;23240;43.210;27.910;2022-10-16T15:37:41;2.67;;;1.88;;
37367;SDS011;23240;43.210;27.910;2022-10-16T15:40:08;3.35;;;2.47;;
37367;SDS011;23240;43.210;27.910;2022-10-16T15:42:34;2.67;;;1.75;;
37367;SDS011;23240;43.210;27.910;2022-10-16T15:45:00;3.70;;;2.10;;
37367;SDS011;23240;43.210;27.910;2022-10-16T15:47:26;4.30;;;2.40;;
37367;SDS011;23240;43.210;27.910;2022-10-16T15:49:51;6.53;;;2.58;;
37367;SDS011;23240;43.210;27.910;2022-10-16T15:52:17;4.43;;;2.28;;
37367;SDS011;23240;43.210;27.910;2022-10-16T15:54:43;3.20;;;2.05;;
37367;SDS011;23240;43.210;27.910;2022-10-16T15:57:08;7.10;;;2.72;;
37367;SDS011;23240;43.210;27.910;2022-10-16T15:59:34;5.28;;;2.60;;
37367;SDS011;23240;43.210;27.910;2022-10-16T16:01:59;5.25;;;2.50;;
37367;SDS011;23240;43.210;27.910;2022-10-16T16:04:25;4.07;;;2.20;;
37367;SDS011;23240;43.210;27.910;2022-10-16T16:06:50;6.70;;;3.03;;
37367;SDS011;23240;43.210;27.910;2022-10-16T16:09:16;5.22;;;2.50;;
37367;SDS011;23240;43.210;27.910;2022-10-16T16:11:41;6.93;;;3.22;;
37367;SDS011;23240;43.210;27.910;2022-10-16T16:14:07;3.67;;;2.78;;
37367;SDS011;23240;43.210;27.910;2022-10-16T16:16:36;7.68;;;2.85;;
37367;SDS011;23240;43.210;27.910;2022-10-16T16:19:06;4.95;;;2.92;;
37367;SDS011;23240;43.210;27.910;2022-10-16T16:21:34;8.38;;;3.72;;
37367;SDS011;23240;43.210;27.910;2022-10-16T16:24:00;6.50;;;3.22;;
37367;SDS011;23240;43.210;27.910;2022-10-16T16:26:28;8.75;;;4.00;;
37367;SDS011;23240;43.210;27.910;2022-10-16T16:29:01;7.20;;;3.47;;
37367;SDS011;23240;43.210;27.910;2022-10-16T16:31:28;7.75;;;3.55;;
37367;SDS011;23240;43.210;27.910;2022-10-16T16:33:55;6.63;;;3.30;;
37367;SDS011;23240;43.210;27.910;2022-10-16T16:36:21;7.80;;;3.70;;
37367;SDS011;23240;43.210;27.910;2022-10-16T16:38:48;6.65;;;3.28;;
37367;SDS011;23240;43.210;27.910;2022-10-16T16:41:15;10.35;;;3.85;;
37367;SDS011;23240;43.210;27.910;2022-10-16T16:43:42;8.23;;;3.53;;
37367;SDS011;23240;43.210;27.910;2022-10-16T16:46:07;5.18;;;3.00;;
37367;SDS011;23240;43.210;27.910;2022-10-16T16:48:33;10.75;;;3.95;;
37367;SDS011;23240;43.210;27.910;2022-10-16T16:51:02;4.57;;;2.75;;